sensor_id;sensor_type;location;lat;lon;timestamp;pressure;altitude;pressure_sealevel;temperature;humidity
78675;BME280;67990;59.826;30.108;2023-04-03T00:04:03;102550.75;;;0.44;68.30
78675;BME280;67990;59.826;30.108;2023-04-03T00:06:31;102551.66;;;0.43;68.97
78675;BME280;67990;59.826;30.108;2023-04-03T00:09:18;102554.16;;;0.48;69.19
78675;BME280;67990;59.826;30.108;2023-04-03T00:11:45;102556.59;;;0.55;68.53
78675;BME280;67990;59.826;30.108;2023-04-03T00:14:13;102556.84;;;0.40;68.76
78675;BME280;67990;59.826;30.108;2023-04-03T00:16:42;102550.53;;;0.56;68.85
78675;BME280;67990;59.826;30.108;2023-04-03T00:19:30;102550.72;;;0.46;68.29
78675;BME280;67990;59.826;30.108;2023-04-03T00:21:58;102541.84;;;0.62;68.62
78675;BME280;67990;59.826;30.108;2023-04-03T00:24:25;102528.94;;;0.59;67.85
78675;BME280;67990;59.826;30.108;2023-04-03T00:26:52;102541.97;;;0.54;68.02
78675;BME280;67990;59.826;30.108;2023-04-03T00:29:19;102546.91;;;0.66;67.69
78675;BME280;67990;59.826;30.108;2023-04-03T00:34:34;102522.63;;;0.28;68.61
78675;BME280;67990;59.826;30.108;2023-04-03T00:40:25;102544.13;;;0.28;69.10
78675;BME280;67990;59.826;30.108;2023-04-03T00:42:56;102550.72;;;0.46;69.18
78675;BME280;67990;59.826;30.108;2023-04-03T00:45:34;102540.59;;;0.34;69.46
78675;BME280;67990;59.826;30.108;2023-04-03T00:48:21;102544.59;;;0.53;69.07
78675;BME280;67990;59.826;30.108;2023-04-03T00:50:51;102521.06;;;0.16;69.42
78675;BME280;67990;59.826;30.108;2023-04-03T00:53:22;102549.13;;;0.39;70.20
78675;BME280;67990;59.826;30.108;2023-04-03T00:56:10;102549.94;;;0.42;70.00
78675;BME280;67990;59.826;30.108;2023-04-03T00:58:59;102548.91;;;0.52;69.74
78675;BME280;67990;59.826;30.108;2023-04-03T01:01:47;102542.06;;;0.48;69.10
78675;BME280;67990;59.826;30.108;2023-04-03T01:04:35;102545.72;;;0.37;69.50
78675;BME280;67990;59.826;30.108;2023-04-03T01:07:07;102551.13;;;0.22;69.79
78675;BME280;67990;59.826;30.108;2023-04-03T01:09:35;102546.00;;;0.20;69.99
78675;BME280;67990;59.826;30.108;2023-04-03T01:12:23;102549.38;;;0.25;69.93
78675;BME280;67990;59.826;30.108;2023-04-03T01:15:10;102549.94;;;0.42;69.55
78675;BME280;67990;59.826;30.108;2023-04-03T01:17:39;102547.63;;;0.26;69.60
78675;BME280;67990;59.826;30.108;2023-04-03T01:23:41;102531.19;;;0.30;69.40
78675;BME280;67990;59.826;30.108;2023-04-03T01:26:31;102541.19;;;0.49;69.31
78675;BME280;67990;59.826;30.108;2023-04-03T01:29:17;102509.53;;;0.38;68.62
78675;BME280;67990;59.826;30.108;2023-04-03T01:32:05;102542.09;;;0.47;68.52
78675;BME280;67990;59.826;30.108;2023-04-03T01:34:32;102545.72;;;0.38;68.80
78675;BME280;67990;59.826;30.108;2023-04-03T01:37:00;102543.94;;;0.40;68.18
78675;BME280;67990;59.826;30.108;2023-04-03T01:39:27;102499.03;;;-0.03;68.88
78675;BME280;67990;59.826;30.108;2023-04-03T01:41:55;102538.94;;;0.31;69.16
78675;BME280;67990;59.826;30.108;2023-04-03T01:44:42;102540.53;;;0.38;68.92
78675;BME280;67990;59.826;30.108;2023-04-03T01:49:57;102535.53;;;0.28;68.85
78675;BME280;67990;59.826;30.108;2023-04-03T01:52:25;102547.41;;;0.38;68.83
78675;BME280;67990;59.826;30.108;2023-04-03T01:54:52;102509.75;;;0.25;68.07
78675;BME280;67990;59.826;30.108;2023-04-03T01:57:55;102549.06;;;0.43;68.25
78675;BME280;67990;59.826;30.108;2023-04-03T02:00:23;102545.50;;;0.50;68.57
78675;BME280;67990;59.826;30.108;2023-04-03T02:02:52;102502.91;;;0.22;67.65
78675;BME280;67990;59.826;30.108;2023-04-03T02:05:19;102545.72;;;0.38;68.15
78675;BME280;67990;59.826;30.108;2023-04-03T02:07:46;102535.47;;;0.31;67.58
78675;BME280;67990;59.826;30.108;2023-04-03T02:10:13;102544.22;;;0.25;68.09
78675;BME280;67990;59.826;30.108;2023-04-03T02:12:59;102539.91;;;0.24;67.69
78675;BME280;67990;59.826;30.108;2023-04-03T02:15:45;102528.97;;;0.07;68.12
78675;BME280;67990;59.826;30.108;2023-04-03T02:18:17;102546.63;;;0.34;68.37
78675;BME280;67990;59.826;30.108;2023-04-03T02:20:46;102541.50;;;0.31;67.82
78675;BME280;67990;59.826;30.108;2023-04-03T02:23:13;102542.78;;;0.06;67.74
78675;BME280;67990;59.826;30.108;2023-04-03T02:25:40;102546.41;;;-0.04;69.18
78675;BME280;67990;59.826;30.108;2023-04-03T02:31:12;102535.06;;;0.03;68.96
78675;BME280;67990;59.826;30.108;2023-04-03T02:33:43;102507.00;;;-0.18;69.10
78675;BME280;67990;59.826;30.108;2023-04-03T02:39:18;102534.91;;;0.12;68.00
78675;BME280;67990;59.826;30.108;2023-04-03T02:42:04;102539.09;;;0.21;67.87
78675;BME280;67990;59.826;30.108;2023-04-03T02:44:31;102543.66;;;0.07;68.13
78675;BME280;67990;59.826;30.108;2023-04-03T02:46:58;102528.97;;;0.07;68.54
78675;BME280;67990;59.826;30.108;2023-04-03T02:49:26;102536.66;;;0.13;67.85
78675;BME280;67990;59.826;30.108;2023-04-03T02:52:11;102533.16;;;0.17;67.78
78675;BME280;67990;59.826;30.108;2023-04-03T02:54:38;102528.81;;;0.17;67.82
78675;BME280;67990;59.826;30.108;2023-04-03T02:57:08;102530.72;;;0.07;68.78
78675;BME280;67990;59.826;30.108;2023-04-03T02:59:36;102529.13;;;-0.02;68.73
78675;BME280;67990;59.826;30.108;2023-04-03T03:02:07;102531.56;;;0.07;68.55
78675;BME280;67990;59.826;30.108;2023-04-03T03:04:35;102530.72;;;0.07;68.47
78675;BME280;67990;59.826;30.108;2023-04-03T03:07:03;102540.97;;;0.11;67.82
78675;BME280;67990;59.826;30.108;2023-04-03T03:09:49;102538.34;;;0.14;67.78
78675;BME280;67990;59.826;30.108;2023-04-03T03:12:35;102531.81;;;-0.08;67.57
78675;BME280;67990;59.826;30.108;2023-04-03T03:15:03;102539.16;;;0.16;68.15
78675;BME280;67990;59.826;30.108;2023-04-03T03:17:49;102537.47;;;0.15;67.55
78675;BME280;67990;59.826;30.108;2023-04-03T03:20:17;102540.03;;;0.17;67.04
78675;BME280;67990;59.826;30.108;2023-04-03T03:23:03;102535.22;;;-0.06;67.31
78675;BME280;67990;59.826;30.108;2023-04-03T03:25:30;102535.25;;;-0.09;66.92
78675;BME280;67990;59.826;30.108;2023-04-03T03:27:58;102532.63;;;-0.06;67.27
78675;BME280;67990;59.826;30.108;2023-04-03T03:30:43;102524.94;;;-0.11;67.81
78675;BME280;67990;59.826;30.108;2023-04-03T03:33:10;102539.41;;;0.03;67.85
78675;BME280;67990;59.826;30.108;2023-04-03T03:35:39;102539.34;;;0.04;68.13
78675;BME280;67990;59.826;30.108;2023-04-03T03:38:07;102541.81;;;0.13;67.28
78675;BME280;67990;59.826;30.108;2023-04-03T03:40:34;102530.81;;;-0.01;67.39
78675;BME280;67990;59.826;30.108;2023-04-03T03:43:02;102544.28;;;0.21;68.13
78675;BME280;67990;59.826;30.108;2023-04-03T03:48:33;102544.09;;;0.31;67.23
78675;BME280;67990;59.826;30.108;2023-04-03T03:51:20;102538.34;;;0.14;67.12
78675;BME280;67990;59.826;30.108;2023-04-03T03:54:06;102544.22;;;0.24;66.96
78675;BME280;67990;59.826;30.108;2023-04-03T03:56:34;102535.59;;;0.25;67.38
78675;BME280;67990;59.826;30.108;2023-04-03T03:59:01;102545.94;;;0.25;67.35
78675;BME280;67990;59.826;30.108;2023-04-03T04:01:31;102541.69;;;0.21;67.51
78675;BME280;67990;59.826;30.108;2023-04-03T04:03:58;102551.50;;;-0.03;68.00
78675;BME280;67990;59.826;30.108;2023-04-03T04:07:04;102551.41;;;0.07;68.31
78675;BME280;67990;59.826;30.108;2023-04-03T04:09:51;102551.44;;;0.03;68.19
78675;BME280;67990;59.826;30.108;2023-04-03T04:12:19;102549.75;;;0.03;68.17
78675;BME280;67990;59.826;30.108;2023-04-03T04:14:47;102545.81;;;0.31;67.71
78675;BME280;67990;59.826;30.108;2023-04-03T04:17:16;102550.84;;;0.40;67.53
78675;BME280;67990;59.826;30.108;2023-04-03T04:19:44;102543.13;;;0.37;67.60
78675;BME280;67990;59.826;30.108;2023-04-03T04:22:14;102542.19;;;0.42;67.80
78675;BME280;67990;59.826;30.108;2023-04-03T04:24:42;102541.13;;;0.54;67.48
78675;BME280;67990;59.826;30.108;2023-04-03T04:27:27;102540.16;;;0.59;67.09
78675;BME280;67990;59.826;30.108;2023-04-03T04:29:55;102539.84;;;0.27;67.33
78675;BME280;67990;59.826;30.108;2023-04-03T04:32:23;102541.72;;;0.19;69.43
78675;BME280;67990;59.826;30.108;2023-04-03T04:35:09;102541.38;;;0.37;69.05
78675;BME280;67990;59.826;30.108;2023-04-03T04:37:42;102540.63;;;0.31;68.73
78675;BME280;67990;59.826;30.108;2023-04-03T04:42:58;102545.03;;;0.26;68.88
78675;BME280;67990;59.826;30.108;2023-04-03T04:45:25;102537.81;;;0.46;69.16
78675;BME280;67990;59.826;30.108;2023-04-03T04:47:55;102534.56;;;0.33;68.88
78675;BME280;67990;59.826;30.108;2023-04-03T04:53:29;102535.34;;;0.40;68.72
78675;BME280;67990;59.826;30.108;2023-04-03T04:55:57;102533.69;;;0.36;68.71
78675;BME280;67990;59.826;30.108;2023-04-03T05:01:10;102531.72;;;0.48;69.98
78675;BME280;67990;59.826;30.108;2023-04-03T05:03:57;102535.75;;;0.64;69.27
78675;BME280;67990;59.826;30.108;2023-04-03T05:06:24;102523.72;;;0.63;68.37
78675;BME280;67990;59.826;30.108;2023-04-03T05:08:55;102527.06;;;0.68;68.68
78675;BME280;67990;59.826;30.108;2023-04-03T05:11:23;102522.09;;;0.58;68.14
78675;BME280;67990;59.826;30.108;2023-04-03T05:13:52;102540.19;;;0.58;68.41
78675;BME280;67990;59.826;30.108;2023-04-03T05:16:21;102531.44;;;0.65;68.74
78675;BME280;67990;59.826;30.108;2023-04-03T05:19:06;102527.72;;;0.79;67.89
78675;BME280;67990;59.826;30.108;2023-04-03T05:21:34;102536.72;;;1.03;67.89
78675;BME280;67990;59.826;30.108;2023-04-03T05:24:08;102537.63;;;1.02;67.12
78675;BME280;67990;59.826;30.108;2023-04-03T05:26:37;102525.97;;;0.80;67.13
78675;BME280;67990;59.826;30.108;2023-04-03T05:29:09;102535.16;;;0.94;67.15
78675;BME280;67990;59.826;30.108;2023-04-03T05:31:36;102530.78;;;0.52;67.65
78675;BME280;67990;59.826;30.108;2023-04-03T05:34:05;102527.78;;;0.75;67.67
78675;BME280;67990;59.826;30.108;2023-04-03T05:36:50;102520.09;;;0.70;67.58
78675;BME280;67990;59.826;30.108;2023-04-03T05:39:19;102540.56;;;0.82;66.73
78675;BME280;67990;59.826;30.108;2023-04-03T05:41:48;102540.94;;;0.63;67.80
78675;BME280;67990;59.826;30.108;2023-04-03T05:44:15;102526.81;;;0.82;67.64
78675;BME280;67990;59.826;30.108;2023-04-03T05:47:01;102537.13;;;0.83;67.33
78675;BME280;67990;59.826;30.108;2023-04-03T05:49:28;102543.09;;;0.85;67.28
78675;BME280;67990;59.826;30.108;2023-04-03T05:52:17;102536.25;;;0.84;67.72
78675;BME280;67990;59.826;30.108;2023-04-03T05:57:53;102520.06;;;0.73;67.09
78675;BME280;67990;59.826;30.108;2023-04-03T06:00:39;102537.84;;;0.90;67.08
78675;BME280;67990;59.826;30.108;2023-04-03T06:06:42;102544.56;;;0.54;67.58
78675;BME280;67990;59.826;30.108;2023-04-03T06:11:57;102555.84;;;0.50;68.04
78675;BME280;67990;59.826;30.108;2023-04-03T06:14:26;102547.91;;;0.61;67.40
78675;BME280;67990;59.826;30.108;2023-04-03T06:16:54;102555.13;;;0.42;67.24
78675;BME280;67990;59.826;30.108;2023-04-03T06:19:22;102551.19;;;0.69;68.23
78675;BME280;67990;59.826;30.108;2023-04-03T06:21:53;102544.19;;;0.75;66.96
78675;BME280;67990;59.826;30.108;2023-04-03T06:24:20;102551.97;;;0.74;66.60
78675;BME280;67990;59.826;30.108;2023-04-03T06:29:37;102546.16;;;1.07;66.10
78675;BME280;67990;59.826;30.108;2023-04-03T06:32:04;102543.13;;;0.84;65.13
78675;BME280;67990;59.826;30.108;2023-04-03T06:34:31;102543.84;;;0.92;65.74
78675;BME280;67990;59.826;30.108;2023-04-03T06:36:59;102544.28;;;0.68;63.96
78675;BME280;67990;59.826;30.108;2023-04-03T06:39:26;102551.03;;;0.76;65.35
78675;BME280;67990;59.826;30.108;2023-04-03T06:42:11;102550.50;;;1.03;66.17
78675;BME280;67990;59.826;30.108;2023-04-03T06:44:48;102554.47;;;1.21;65.57
78675;BME280;67990;59.826;30.108;2023-04-03T06:47:16;102553.50;;;1.26;64.77
78675;BME280;67990;59.826;30.108;2023-04-03T06:49:43;102553.44;;;1.29;64.35
78675;BME280;67990;59.826;30.108;2023-04-03T06:52:11;102552.25;;;1.04;64.36
78675;BME280;67990;59.826;30.108;2023-04-03T06:54:55;102563.59;;;0.96;64.80
78675;BME280;67990;59.826;30.108;2023-04-03T07:00:13;102565.16;;;1.06;65.25
78675;BME280;67990;59.826;30.108;2023-04-03T07:02:42;102552.56;;;1.30;64.90
78675;BME280;67990;59.826;30.108;2023-04-03T07:05:09;102554.41;;;1.25;63.21
78675;BME280;67990;59.826;30.108;2023-04-03T07:07:37;102553.19;;;0.99;64.71
78675;BME280;67990;59.826;30.108;2023-04-03T07:10:05;102548.09;;;0.94;64.42
78675;BME280;67990;59.826;30.108;2023-04-03T07:12:33;102554.34;;;1.28;64.11
78675;BME280;67990;59.826;30.108;2023-04-03T07:15:00;102564.88;;;0.75;63.97
78675;BME280;67990;59.826;30.108;2023-04-03T07:17:29;102564.28;;;1.05;65.63
78675;BME280;67990;59.826;30.108;2023-04-03T07:19:56;102558.38;;;1.41;64.49
78675;BME280;67990;59.826;30.108;2023-04-03T07:22:23;102557.53;;;1.39;64.36
78675;BME280;67990;59.826;30.108;2023-04-03T07:24:50;102555.47;;;1.55;64.19
78675;BME280;67990;59.826;30.108;2023-04-03T07:27:36;102562.19;;;1.63;62.92
78675;BME280;67990;59.826;30.108;2023-04-03T07:32:51;102556.59;;;1.43;63.93
78675;BME280;67990;59.826;30.108;2023-04-03T07:36:14;102553.41;;;1.70;64.33
78675;BME280;67990;59.826;30.108;2023-04-03T07:38:42;102561.53;;;1.13;63.57
78675;BME280;67990;59.826;30.108;2023-04-03T07:41:12;102549.22;;;1.25;64.21
78675;BME280;67990;59.826;30.108;2023-04-03T07:43:41;102558.47;;;1.35;65.83
78675;BME280;67990;59.826;30.108;2023-04-03T07:46:27;102564.63;;;1.71;64.63
78675;BME280;67990;59.826;30.108;2023-04-03T07:48:56;102559.06;;;1.49;64.45
78675;BME280;67990;59.826;30.108;2023-04-03T07:51:23;102560.63;;;1.56;63.30
78675;BME280;67990;59.826;30.108;2023-04-03T07:53:52;102557.16;;;1.57;64.63
78675;BME280;67990;59.826;30.108;2023-04-03T07:59:05;102544.13;;;1.60;64.37
78675;BME280;67990;59.826;30.108;2023-04-03T08:01:32;102562.03;;;1.71;64.07
78675;BME280;67990;59.826;30.108;2023-04-03T08:04:01;102569.28;;;1.55;63.48
78675;BME280;67990;59.826;30.108;2023-04-03T08:06:28;102566.06;;;1.44;63.74
78675;BME280;67990;59.826;30.108;2023-04-03T08:08:58;102531.47;;;1.47;64.09
78675;BME280;67990;59.826;30.108;2023-04-03T08:11:27;102569.78;;;1.71;63.57
78675;BME280;67990;59.826;30.108;2023-04-03T08:13:55;102566.69;;;1.55;64.05
78675;BME280;67990;59.826;30.108;2023-04-03T08:16:24;102576.63;;;1.34;65.38
78675;BME280;67990;59.826;30.108;2023-04-03T08:19:30;102576.06;;;1.61;63.12
78675;BME280;67990;59.826;30.108;2023-04-03T08:21:58;102575.09;;;1.66;64.04
78675;BME280;67990;59.826;30.108;2023-04-03T08:24:26;102578.09;;;1.86;63.33
78675;BME280;67990;59.826;30.108;2023-04-03T08:26:53;102573.78;;;1.85;63.04
78675;BME280;67990;59.826;30.108;2023-04-03T08:29:21;102572.97;;;1.83;64.38
78675;BME280;67990;59.826;30.108;2023-04-03T08:31:49;102588.66;;;1.77;64.28
78675;BME280;67990;59.826;30.108;2023-04-03T08:34:17;102572.41;;;1.69;64.14
78675;BME280;67990;59.826;30.108;2023-04-03T08:37:05;102586.53;;;1.56;64.20
78675;BME280;67990;59.826;30.108;2023-04-03T08:39:32;102592.38;;;2.04;63.97
78675;BME280;67990;59.826;30.108;2023-04-03T08:42:02;102578.53;;;2.05;63.28
78675;BME280;67990;59.826;30.108;2023-04-03T08:44:39;102556.91;;;2.06;63.33
78675;BME280;67990;59.826;30.108;2023-04-03T08:47:32;102587.19;;;2.04;62.72
78675;BME280;67990;59.826;30.108;2023-04-03T08:50:06;102569.50;;;1.84;62.51
78675;BME280;67990;59.826;30.108;2023-04-03T08:52:37;102588.28;;;1.94;64.75
78675;BME280;67990;59.826;30.108;2023-04-03T08:55:13;102568.78;;;1.78;64.39
78675;BME280;67990;59.826;30.108;2023-04-03T08:57:44;102588.25;;;1.95;64.42
78675;BME280;67990;59.826;30.108;2023-04-03T09:00:19;102578.97;;;2.23;63.75
78675;BME280;67990;59.826;30.108;2023-04-03T09:02:49;102564.44;;;2.50;63.08
78675;BME280;67990;59.826;30.108;2023-04-03T09:05:20;102569.22;;;2.66;61.92
78675;BME280;67990;59.826;30.108;2023-04-03T09:07:56;102558.91;;;1.93;62.85
78675;BME280;67990;59.826;30.108;2023-04-03T09:10:45;102584.22;;;2.20;63.20
78675;BME280;67990;59.826;30.108;2023-04-03T09:13:33;102586.59;;;2.28;64.57
78675;BME280;67990;59.826;30.108;2023-04-03T09:16:37;102587.88;;;2.10;64.88
78675;BME280;67990;59.826;30.108;2023-04-03T09:19:49;102570.09;;;2.32;63.09
78675;BME280;67990;59.826;30.108;2023-04-03T09:22:21;102578.56;;;2.38;62.63
78675;BME280;67990;59.826;30.108;2023-04-03T09:24:57;102598.47;;;2.71;62.42
78675;BME280;67990;59.826;30.108;2023-04-03T09:27:27;102587.38;;;2.98;61.51
78675;BME280;67990;59.826;30.108;2023-04-03T09:29:56;102576.06;;;3.01;59.62
78675;BME280;67990;59.826;30.108;2023-04-03T09:32:28;102591.34;;;2.79;61.44
78675;BME280;67990;59.826;30.108;2023-04-03T09:34:57;102595.97;;;3.00;61.01
78675;BME280;67990;59.826;30.108;2023-04-03T09:37:39;102587.44;;;3.27;60.73
78675;BME280;67990;59.826;30.108;2023-04-03T09:40:32;102579.16;;;3.13;61.32
78675;BME280;67990;59.826;30.108;2023-04-03T09:43:24;102587.22;;;3.04;60.62
78675;BME280;67990;59.826;30.108;2023-04-03T09:45:52;102588.56;;;3.17;60.51
78675;BME280;67990;59.826;30.108;2023-04-03T09:48:21;102593.47;;;3.28;60.18
78675;BME280;67990;59.826;30.108;2023-04-03T09:50:58;102586.69;;;3.22;60.43
78675;BME280;67990;59.826;30.108;2023-04-03T09:53:29;102589.28;;;3.22;60.02
78675;BME280;67990;59.826;30.108;2023-04-03T09:58:45;102573.22;;;3.10;60.46
78675;BME280;67990;59.826;30.108;2023-04-03T10:01:23;102591.22;;;2.85;60.75
78675;BME280;67990;59.826;30.108;2023-04-03T10:04:09;102601.47;;;3.20;60.28
78675;BME280;67990;59.826;30.108;2023-04-03T10:06:55;102596.69;;;3.36;59.15
78675;BME280;67990;59.826;30.108;2023-04-03T10:09:24;102597.94;;;3.23;59.59
78675;BME280;67990;59.826;30.108;2023-04-03T10:12:02;102577.63;;;3.37;58.25
78675;BME280;67990;59.826;30.108;2023-04-03T10:14:53;102601.16;;;3.32;59.00
78675;BME280;67990;59.826;30.108;2023-04-03T10:20:36;102593.09;;;3.11;59.53
78675;BME280;67990;59.826;30.108;2023-04-03T10:23:27;102603.97;;;3.25;60.63
78675;BME280;67990;59.826;30.108;2023-04-03T10:26:08;102590.38;;;3.15;59.84
78675;BME280;67990;59.826;30.108;2023-04-03T10:29:23;102601.09;;;2.70;59.39
78675;BME280;67990;59.826;30.108;2023-04-03T10:31:58;102595.03;;;3.03;60.39
78675;BME280;67990;59.826;30.108;2023-04-03T10:34:46;102564.84;;;2.99;59.97
78675;BME280;67990;59.826;30.108;2023-04-03T10:37:23;102596.91;;;3.30;58.54
78675;BME280;67990;59.826;30.108;2023-04-03T10:39:53;102593.47;;;3.28;58.38
78675;BME280;67990;59.826;30.108;2023-04-03T10:42:44;102593.50;;;3.26;58.91
78675;BME280;67990;59.826;30.108;2023-04-03T10:45:26;102575.94;;;3.05;59.05
78675;BME280;67990;59.826;30.108;2023-04-03T10:48:15;102595.38;;;3.21;59.53
78675;BME280;67990;59.826;30.108;2023-04-03T10:50:51;102585.88;;;2.90;58.65
78675;BME280;67990;59.826;30.108;2023-04-03T10:56:19;102581.72;;;3.15;58.63
78675;BME280;67990;59.826;30.108;2023-04-03T11:02:00;102582.69;;;2.79;57.72
78675;BME280;67990;59.826;30.108;2023-04-03T11:04:31;102568.38;;;2.64;59.10
78675;BME280;67990;59.826;30.108;2023-04-03T11:07:21;102556.75;;;2.79;60.21
78675;BME280;67990;59.826;30.108;2023-04-03T11:10:13;102591.31;;;3.13;59.06
78675;BME280;67990;59.826;30.108;2023-04-03T11:12:46;102547.88;;;3.18;57.94
78675;BME280;67990;59.826;30.108;2023-04-03T11:15:17;102563.81;;;3.36;57.27
78675;BME280;67990;59.826;30.108;2023-04-03T11:17:50;102590.19;;;3.21;58.19
78675;BME280;67990;59.826;30.108;2023-04-03T11:26:15;102587.94;;;3.09;59.12
78675;BME280;67990;59.826;30.108;2023-04-03T11:28:43;102592.03;;;3.18;58.88
78675;BME280;67990;59.826;30.108;2023-04-03T11:31:43;102593.34;;;3.02;59.28
78675;BME280;67990;59.826;30.108;2023-04-03T11:34:25;102596.03;;;2.97;59.12
78675;BME280;67990;59.826;30.108;2023-04-03T11:36:58;102587.34;;;3.00;59.47
78675;BME280;67990;59.826;30.108;2023-04-03T11:39:29;102595.56;;;2.83;59.38
78675;BME280;67990;59.826;30.108;2023-04-03T11:42:14;102592.31;;;3.07;59.97
78675;BME280;67990;59.826;30.108;2023-04-03T11:44:42;102594.00;;;3.10;59.42
78675;BME280;67990;59.826;30.108;2023-04-03T11:47:11;102593.53;;;2.96;59.80
78675;BME280;67990;59.826;30.108;2023-04-03T11:53:26;102592.06;;;2.84;60.01
78675;BME280;67990;59.826;30.108;2023-04-03T11:56:28;102590.72;;;3.03;60.69
78675;BME280;67990;59.826;30.108;2023-04-03T11:59:23;102595.00;;;3.04;60.67
78675;BME280;67990;59.826;30.108;2023-04-03T12:01:54;102587.00;;;3.12;60.33
78675;BME280;67990;59.826;30.108;2023-04-03T12:04:23;102587.00;;;3.12;60.35
78675;BME280;67990;59.826;30.108;2023-04-03T12:10:23;102558.97;;;2.92;60.36
78675;BME280;67990;59.826;30.108;2023-04-03T12:12:58;102558.97;;;2.92;60.93
78675;BME280;67990;59.826;30.108;2023-04-03T12:15:55;102585.72;;;3.26;60.33
78675;BME280;67990;59.826;30.108;2023-04-03T12:18:53;102576.41;;;3.19;59.65
78675;BME280;67990;59.826;30.108;2023-04-03T12:21:22;102584.97;;;3.23;60.69
78675;BME280;67990;59.826;30.108;2023-04-03T12:24:23;102587.94;;;3.09;61.02
78675;BME280;67990;59.826;30.108;2023-04-03T12:27:03;102584.97;;;2.91;60.39
78675;BME280;67990;59.826;30.108;2023-04-03T12:29:54;102589.16;;;2.96;61.38
78675;BME280;67990;59.826;30.108;2023-04-03T12:33:02;102536.44;;;2.62;60.25
78675;BME280;67990;59.826;30.108;2023-04-03T12:41:48;102545.91;;;2.65;61.33
78675;BME280;67990;59.826;30.108;2023-04-03T12:44:34;102575.63;;;2.85;62.04
78675;BME280;67990;59.826;30.108;2023-04-03T12:47:18;102566.13;;;2.84;61.09
78675;BME280;67990;59.826;30.108;2023-04-03T12:49:49;102560.59;;;2.64;61.35
78675;BME280;67990;59.826;30.108;2023-04-03T12:52:36;102589.09;;;2.66;61.99
78675;BME280;67990;59.826;30.108;2023-04-03T12:58:15;102587.09;;;2.43;61.85
